createdAt,value
2023-06-04T00:01:16.616Z,97831.38
2023-06-04T00:03:44.086Z,97836.94
2023-06-04T00:06:10.788Z,97846.81
2023-06-04T00:08:37.490Z,97846.25
2023-06-04T00:11:04.362Z,97847.94
2023-06-04T00:13:31.107Z,97855.16
2023-06-04T00:15:57.703Z,97857.97
2023-06-04T00:18:24.238Z,97861.25
2023-06-04T00:20:50.770Z,97855.78
2023-06-04T00:23:17.385Z,97849.25
2023-06-04T00:25:43.884Z,97852.38
2023-06-04T00:28:10.456Z,97848.59
2023-06-04T00:30:37.030Z,97845.81
2023-06-04T00:33:03.837Z,97851.75
2023-06-04T00:35:30.509Z,97850.97
2023-06-04T00:37:57.126Z,97859.00
2023-06-04T00:40:23.662Z,97857.75
2023-06-04T00:42:50.549Z,97848.69
2023-06-04T00:45:19.824Z,97847.16
2023-06-04T00:47:46.535Z,97846.94
2023-06-04T00:50:13.234Z,97849.44
2023-06-04T00:52:42.740Z,97840.66
2023-06-04T00:55:09.508Z,97843.25
2023-06-04T00:57:36.106Z,97832.63
2023-06-04T01:00:03.277Z,97830.69
2023-06-04T01:02:31.328Z,97833.34
2023-06-04T01:05:15.149Z,97844.94
2023-06-04T01:07:46.651Z,97844.16
2023-06-04T01:10:14.295Z,97838.84
2023-06-04T01:12:42.175Z,97843.00
2023-06-04T01:15:09.320Z,97842.75
2023-06-04T01:17:40.149Z,97836.00
2023-06-04T01:20:21.973Z,97839.34
2023-06-04T01:23:14.369Z,97834.66
2023-06-04T01:25:42.683Z,97835.47
2023-06-04T01:28:11.898Z,97832.66
2023-06-04T01:30:46.971Z,97835.31
2023-06-04T01:33:19.929Z,97841.31
2023-06-04T01:35:46.462Z,97839.28
2023-06-04T01:38:13.066Z,97851.28
2023-06-04T01:40:39.785Z,97845.63
2023-06-04T01:43:06.372Z,97849.69
2023-06-04T01:45:32.971Z,97847.81
2023-06-04T01:48:01.882Z,97844.59
2023-06-04T01:50:28.439Z,97847.41
2023-06-04T01:52:55.487Z,97846.94
2023-06-04T01:55:22.034Z,97852.94
2023-06-04T01:57:49.610Z,97851.84
2023-06-04T02:00:16.279Z,97849.28
2023-06-04T02:02:47.037Z,97857.16
2023-06-04T02:05:13.620Z,97852.56
2023-06-04T02:07:41.576Z,97857.00
2023-06-04T02:10:15.108Z,97852.25
2023-06-04T02:12:42.432Z,97855.84
2023-06-04T02:15:11.307Z,97857.16
2023-06-04T02:17:44.112Z,97856.59
2023-06-04T02:20:11.262Z,97856.75
2023-06-04T02:22:38.748Z,97863.06
2023-06-04T02:25:05.985Z,97864.50
2023-06-04T02:27:32.592Z,97873.06
2023-06-04T02:29:59.198Z,97874.22
2023-06-04T02:32:25.994Z,97880.81
2023-06-04T02:34:52.536Z,97889.16
2023-06-04T02:37:19.198Z,97900.00
2023-06-04T02:39:45.935Z,97892.91
2023-06-04T02:42:12.481Z,97890.38
2023-06-04T02:44:38.972Z,97893.66
2023-06-04T02:47:05.930Z,97892.19
2023-06-04T02:49:32.479Z,97892.72
2023-06-04T02:51:58.977Z,97899.59
2023-06-04T02:54:25.706Z,97899.16
2023-06-04T02:56:52.503Z,97894.94
2023-06-04T02:59:19.192Z,97892.69
2023-06-04T03:01:46.068Z,97891.19
2023-06-04T03:04:16.754Z,97884.06
2023-06-04T03:06:47.580Z,97893.69
2023-06-04T03:09:14.494Z,97888.53
2023-06-04T03:11:41.047Z,97893.53
2023-06-04T03:14:07.769Z,97891.72
2023-06-04T03:16:34.418Z,97898.94
2023-06-04T03:19:01.088Z,97894.97
2023-06-04T03:21:30.134Z,97895.56
2023-06-04T03:23:57.004Z,97890.41
2023-06-04T03:26:23.620Z,97894.50
2023-06-04T03:28:50.160Z,97898.81
2023-06-04T03:31:16.858Z,97898.72
2023-06-04T03:33:43.552Z,97897.41
2023-06-04T03:36:10.275Z,97904.28
2023-06-04T03:38:36.886Z,97894.97
2023-06-04T03:41:03.625Z,97889.47
2023-06-04T03:43:30.417Z,97891.59
2023-06-04T03:45:56.993Z,97890.19
2023-06-04T03:48:23.746Z,97890.91
2023-06-04T03:50:50.686Z,97894.63
2023-06-04T03:53:17.324Z,97891.59
2023-06-04T03:55:44.304Z,97892.50
2023-06-04T03:58:12.534Z,97893.94
2023-06-04T04:00:39.114Z,97896.31
2023-06-04T04:03:05.971Z,97899.19
2023-06-04T04:05:33.204Z,97900.69
2023-06-04T04:08:00.120Z,97897.75
2023-06-04T04:10:26.737Z,97900.41
2023-06-04T04:12:56.123Z,97907.81
2023-06-04T04:15:22.869Z,97910.38
2023-06-04T04:17:49.599Z,97905.44
2023-06-04T04:20:17.376Z,97913.72
2023-06-04T04:22:43.935Z,97908.31
2023-06-04T04:25:10.623Z,97904.44
2023-06-04T04:27:40.033Z,97913.16
2023-06-04T04:30:07.336Z,97914.31
2023-06-04T04:32:34.015Z,97918.75
2023-06-04T04:35:01.652Z,97911.44
2023-06-04T04:37:28.284Z,97916.59
2023-06-04T04:39:54.770Z,97910.06
2023-06-04T04:42:21.397Z,97908.19
2023-06-04T04:44:49.405Z,97910.69
2023-06-04T04:47:16.281Z,97915.75
2023-06-04T04:49:43.081Z,97912.91
2023-06-04T04:52:09.809Z,97918.78
2023-06-04T04:54:36.537Z,97917.50
2023-06-04T04:57:13.197Z,97918.03
2023-06-04T04:59:41.022Z,97920.31
2023-06-04T05:02:07.683Z,97920.81
2023-06-04T05:04:34.346Z,97918.59
2023-06-04T05:07:01.131Z,97926.53
2023-06-04T05:09:27.723Z,97929.97
2023-06-04T05:11:54.291Z,97922.59
2023-06-04T05:14:20.962Z,97920.81
2023-06-04T05:16:49.900Z,97937.38
2023-06-04T05:19:20.429Z,97933.81
2023-06-04T05:21:46.970Z,97938.22
2023-06-04T05:24:13.641Z,97937.72
2023-06-04T05:26:40.951Z,97936.63
2023-06-04T05:29:13.463Z,97937.06
2023-06-04T05:31:41.194Z,97941.09
2023-06-04T05:34:07.871Z,97946.56
2023-06-04T05:36:34.428Z,97946.41
2023-06-04T05:39:01.315Z,97947.25
2023-06-04T05:41:28.792Z,97946.69
2023-06-04T05:43:55.577Z,97943.97
2023-06-04T05:46:22.888Z,97950.63
2023-06-04T05:48:49.828Z,97942.66
2023-06-04T05:51:16.610Z,97952.09
2023-06-04T05:53:43.381Z,97951.78
2023-06-04T05:56:10.160Z,97957.81
2023-06-04T05:58:37.324Z,97960.13
2023-06-04T06:01:04.378Z,97958.38
2023-06-04T06:03:33.342Z,97958.88
2023-06-04T06:06:01.776Z,97953.72
2023-06-04T06:08:28.475Z,97957.97
2023-06-04T06:10:55.097Z,97963.19
2023-06-04T06:13:21.707Z,97967.31
2023-06-04T06:15:51.759Z,97960.56
2023-06-04T06:18:18.478Z,97966.38
2023-06-04T06:20:45.449Z,97959.50
2023-06-04T06:23:12.100Z,97963.56
2023-06-04T06:25:41.557Z,97961.59
2023-06-04T06:28:08.614Z,97959.91
2023-06-04T06:30:35.451Z,97960.41
2023-06-04T06:33:03.198Z,97959.72
2023-06-04T06:35:29.838Z,97967.72
2023-06-04T06:37:56.471Z,97965.34
2023-06-04T06:40:23.758Z,97964.97
2023-06-04T06:42:52.109Z,97964.78
2023-06-04T06:45:20.219Z,97967.50
2023-06-04T06:47:46.970Z,97965.16
2023-06-04T06:50:13.647Z,97956.44
2023-06-04T06:52:40.279Z,97960.84
2023-06-04T06:55:07.124Z,97959.34
2023-06-04T06:57:34.804Z,97961.31
2023-06-04T07:00:02.677Z,97965.28
2023-06-04T07:02:30.354Z,97961.75
2023-06-04T07:04:57.171Z,97963.00
2023-06-04T07:07:24.327Z,97953.31
2023-06-04T07:09:51.328Z,97960.16
2023-06-04T07:12:17.947Z,97957.31
2023-06-04T07:14:44.647Z,97955.69
2023-06-04T07:17:11.432Z,97957.31
2023-06-04T07:19:38.198Z,97964.34
2023-06-04T07:22:05.188Z,97957.59
2023-06-04T07:24:31.839Z,97961.38
2023-06-04T07:26:58.821Z,97965.34
2023-06-04T07:29:25.757Z,97962.53
2023-06-04T07:31:52.598Z,97963.22
2023-06-04T07:34:19.227Z,97962.63
2023-06-04T07:36:46.060Z,97964.59
2023-06-04T07:39:12.707Z,97962.84
2023-06-04T07:41:39.329Z,97965.13
2023-06-04T07:44:06.012Z,97968.81
2023-06-04T07:46:32.650Z,97956.97
2023-06-04T07:48:59.362Z,97962.09
2023-06-04T07:51:26.833Z,97959.34
2023-06-04T07:53:53.749Z,97953.06
2023-06-04T07:56:22.901Z,97955.50
2023-06-04T07:58:49.606Z,97951.13
2023-06-04T08:01:16.778Z,97948.84
2023-06-04T08:03:43.644Z,97942.53
2023-06-04T08:06:11.296Z,97944.06
2023-06-04T08:08:38.062Z,97941.09
2023-06-04T08:11:04.970Z,97947.84
2023-06-04T08:13:31.899Z,97948.34
2023-06-04T08:15:58.668Z,97945.56
2023-06-04T08:18:25.419Z,97955.75
2023-06-04T08:20:52.554Z,97949.16
2023-06-04T08:23:19.361Z,97957.78
2023-06-04T08:25:46.101Z,97955.84
2023-06-04T08:28:16.568Z,97954.88
2023-06-04T08:30:44.080Z,97951.97
2023-06-04T08:33:12.423Z,97953.50
2023-06-04T08:35:39.234Z,97950.59
2023-06-04T08:38:06.184Z,97945.81
2023-06-04T08:40:32.985Z,97950.22
2023-06-04T08:43:01.569Z,97954.25
2023-06-04T08:45:28.996Z,97961.44
2023-06-04T08:47:56.192Z,97960.75
2023-06-04T08:50:25.009Z,97956.50
2023-06-04T08:52:57.112Z,97954.91
2023-06-04T08:55:25.468Z,97961.66
2023-06-04T08:57:52.873Z,97958.53
2023-06-04T09:00:20.523Z,97952.75
2023-06-04T09:02:50.758Z,97963.47
2023-06-04T09:05:22.382Z,97957.31
2023-06-04T09:07:52.175Z,97958.13
2023-06-04T09:10:20.440Z,97958.72
2023-06-04T09:12:48.742Z,97952.94
2023-06-04T09:15:15.494Z,97947.19
2023-06-04T09:17:42.239Z,97941.03
2023-06-04T09:20:19.153Z,97947.75
2023-06-04T09:22:45.909Z,97947.78
2023-06-04T09:25:26.972Z,97953.44
2023-06-04T09:27:56.594Z,97940.16
2023-06-04T09:30:24.108Z,97952.47
2023-06-04T09:32:50.929Z,97952.59
2023-06-04T09:35:19.317Z,97954.16
2023-06-04T09:37:59.058Z,97953.06
2023-06-04T09:40:26.075Z,97952.06
2023-06-04T09:42:56.720Z,97944.06
2023-06-04T09:45:30.353Z,97948.28
2023-06-04T09:47:57.230Z,97949.66
2023-06-04T09:50:28.703Z,97938.22
2023-06-04T09:52:56.199Z,97949.22
2023-06-04T09:55:23.771Z,97941.03
2023-06-04T09:57:52.242Z,97942.22
2023-06-04T10:00:22.044Z,97929.00
2023-06-04T10:02:49.818Z,97940.75
2023-06-04T10:05:17.328Z,97932.56
2023-06-04T10:07:45.835Z,97939.03
2023-06-04T10:10:17.477Z,97932.56
2023-06-04T10:12:44.738Z,97922.84
2023-06-04T10:15:14.792Z,97918.22
2023-06-04T10:17:42.215Z,97922.00
2023-06-04T10:20:10.095Z,97929.28
2023-06-04T10:22:37.180Z,97927.66
2023-06-04T10:25:04.788Z,97925.78
2023-06-04T10:27:32.890Z,97927.03
2023-06-04T10:30:04.533Z,97920.53
2023-06-04T10:32:31.625Z,97921.38
2023-06-04T10:34:58.800Z,97914.38
2023-06-04T10:37:27.114Z,97923.00
2023-06-04T10:39:56.100Z,97919.72
2023-06-04T10:42:23.883Z,97915.94
2023-06-04T10:44:54.385Z,97911.50
2023-06-04T10:47:28.190Z,97905.44
2023-06-04T10:49:56.254Z,97911.50
2023-06-04T10:52:23.521Z,97903.13
2023-06-04T10:54:50.381Z,97898.06
2023-06-04T10:57:18.300Z,97894.66
2023-06-04T11:00:02.201Z,97894.16
2023-06-04T11:02:28.959Z,97899.88
2023-06-04T11:05:08.059Z,97894.50
2023-06-04T11:07:45.556Z,97889.75
2023-06-04T11:10:13.439Z,97887.47
2023-06-04T11:12:47.170Z,97893.69
2023-06-04T11:15:14.486Z,97878.47
2023-06-04T11:17:54.641Z,97876.72
2023-06-04T11:20:22.859Z,97884.78
2023-06-04T11:22:59.467Z,97887.38
2023-06-04T11:25:27.525Z,97882.16
2023-06-04T11:27:56.334Z,97873.88
2023-06-04T11:30:23.598Z,97879.84
2023-06-04T11:32:50.587Z,97871.34
2023-06-04T11:35:17.547Z,97875.31
2023-06-04T11:37:54.738Z,97869.75
2023-06-04T11:40:21.605Z,97876.41
2023-06-04T11:42:49.605Z,97870.00
2023-06-04T11:45:18.756Z,97873.19
2023-06-04T11:47:49.704Z,97866.69
2023-06-04T11:50:17.134Z,97866.00
2023-06-04T11:52:44.504Z,97862.22
2023-06-04T11:55:12.765Z,97868.63
2023-06-04T11:57:40.615Z,97867.13
2023-06-04T12:00:10.503Z,97863.09
2023-06-04T12:02:51.152Z,97861.13
2023-06-04T12:05:21.945Z,97855.59
2023-06-04T12:07:51.948Z,97855.59
2023-06-04T12:10:23.615Z,97853.59
2023-06-04T12:12:57.089Z,97853.66
2023-06-04T12:15:24.026Z,97852.19
2023-06-04T12:17:55.388Z,97853.56
2023-06-04T12:20:38.149Z,97853.75
2023-06-04T12:23:07.329Z,97859.13
2023-06-04T12:25:35.396Z,97856.81
2023-06-04T12:28:04.188Z,97856.97
2023-06-04T12:30:39.205Z,97858.06
2023-06-04T12:33:06.256Z,97856.00
2023-06-04T12:35:34.157Z,97852.00
2023-06-04T12:38:01.502Z,97849.59
2023-06-04T12:40:28.207Z,97852.22
2023-06-04T12:42:54.903Z,97855.94
2023-06-04T12:45:21.567Z,97849.50
2023-06-04T12:47:48.807Z,97845.38
2023-06-04T12:50:15.673Z,97850.22
2023-06-04T12:52:42.503Z,97851.34
2023-06-04T12:55:10.144Z,97857.50
2023-06-04T12:57:36.790Z,97858.44
2023-06-04T13:00:05.789Z,97861.03
2023-06-04T13:02:32.613Z,97853.53
2023-06-04T13:04:59.422Z,97856.84
2023-06-04T13:07:28.281Z,97861.28
2023-06-04T13:09:55.372Z,97848.00
2023-06-04T13:12:22.143Z,97851.41
2023-06-04T13:14:48.816Z,97851.00
2023-06-04T13:17:22.697Z,97829.34
2023-06-04T13:19:49.847Z,97836.72
2023-06-04T13:22:16.536Z,97838.84
2023-06-04T13:24:43.326Z,97833.38
2023-06-04T13:27:09.995Z,97831.81
2023-06-04T13:29:36.669Z,97816.91
2023-06-04T13:32:03.486Z,97822.84
2023-06-04T13:34:31.980Z,97822.00
2023-06-04T13:36:58.800Z,97824.47
2023-06-04T13:39:25.542Z,97813.47
2023-06-04T13:41:52.217Z,97816.09
2023-06-04T13:44:18.913Z,97819.09
2023-06-04T13:46:45.696Z,97808.59
2023-06-04T13:49:12.321Z,97811.47
2023-06-04T13:51:38.989Z,97810.69
2023-06-04T13:54:05.811Z,97809.16
2023-06-04T13:56:35.734Z,97802.09
2023-06-04T13:59:02.427Z,97799.03
2023-06-04T14:01:29.272Z,97798.56
2023-06-04T14:03:56.197Z,97796.66
2023-06-04T14:06:23.049Z,97801.63
2023-06-04T14:08:49.703Z,97797.28
2023-06-04T14:11:16.468Z,97796.25
2023-06-04T14:13:46.221Z,97799.50
2023-06-04T14:16:13.252Z,97787.66
2023-06-04T14:18:39.866Z,97789.28
2023-06-04T14:21:09.983Z,97789.06
2023-06-04T14:23:36.841Z,97790.44
2023-06-04T14:26:03.578Z,97785.75
2023-06-04T14:28:30.620Z,97789.28
2023-06-04T14:30:59.012Z,97779.38
2023-06-04T14:33:25.837Z,97779.38
2023-06-04T14:35:52.531Z,97787.66
2023-06-04T14:38:19.321Z,97784.69
2023-06-04T14:40:47.452Z,97779.19
2023-06-04T14:43:14.418Z,97788.16
2023-06-04T14:45:41.880Z,97775.56
2023-06-04T14:48:15.333Z,97781.94
2023-06-04T14:50:43.642Z,97778.91
2023-06-04T14:53:10.784Z,97780.34
2023-06-04T14:55:37.896Z,97772.84
2023-06-04T14:58:05.016Z,97766.63
2023-06-04T15:00:32.562Z,97771.25
2023-06-04T15:03:01.061Z,97758.16
2023-06-04T15:05:27.976Z,97770.81
2023-06-04T15:07:54.850Z,97759.72
2023-06-04T15:10:23.136Z,97749.63
2023-06-04T15:12:49.828Z,97746.09
2023-06-04T15:15:16.529Z,97754.84
2023-06-04T15:17:45.572Z,97740.88
2023-06-04T15:20:13.923Z,97735.28
2023-06-04T15:22:40.670Z,97745.59
2023-06-04T15:25:07.969Z,97740.41
2023-06-04T15:27:35.295Z,97738.47
2023-06-04T15:30:02.917Z,97745.59
2023-06-04T15:32:29.676Z,97741.72
2023-06-04T15:34:56.401Z,97745.72
2023-06-04T15:37:23.155Z,97740.81
2023-06-04T15:39:49.842Z,97739.69
2023-06-04T15:42:16.622Z,97735.06
2023-06-04T15:44:43.242Z,97728.69
2023-06-04T15:47:09.941Z,97729.09
2023-06-04T15:49:36.630Z,97728.91
2023-06-04T15:52:03.535Z,97726.59
2023-06-04T15:54:43.996Z,97730.41
2023-06-04T15:57:12.471Z,97728.72
2023-06-04T15:59:39.100Z,97735.50
2023-06-04T16:02:07.050Z,97741.09
2023-06-04T16:04:34.032Z,97733.38
2023-06-04T16:07:01.241Z,97735.50
2023-06-04T16:09:29.949Z,97737.81
2023-06-04T16:11:56.712Z,97733.44
2023-06-04T16:14:23.543Z,97734.44
2023-06-04T16:16:50.436Z,97724.94
2023-06-04T16:19:17.329Z,97732.56
2023-06-04T16:21:44.132Z,97729.13
2023-06-04T16:24:11.066Z,97731.00
2023-06-04T16:26:37.994Z,97729.31
2023-06-04T16:29:05.240Z,97727.22
2023-06-04T16:31:32.002Z,97733.34
2023-06-04T16:33:58.638Z,97732.22
2023-06-04T16:36:25.344Z,97726.19
2023-06-04T16:38:53.958Z,97737.13
2023-06-04T16:41:21.335Z,97734.91
2023-06-04T16:43:48.011Z,97737.44
2023-06-04T16:46:14.671Z,97736.13
2023-06-04T16:48:41.642Z,97746.78
2023-06-04T16:51:09.528Z,97744.41
2023-06-04T16:53:36.190Z,97742.13
2023-06-04T16:56:02.788Z,97746.44
2023-06-04T16:58:29.494Z,97748.16
2023-06-04T17:00:56.332Z,97752.19
2023-06-04T17:03:23.703Z,97759.28
2023-06-04T17:05:50.437Z,97766.84
2023-06-04T17:08:17.141Z,97757.56
2023-06-04T17:10:44.003Z,97760.97
2023-06-04T17:13:10.633Z,97768.75
2023-06-04T17:15:37.291Z,97771.31
2023-06-04T17:18:07.568Z,97766.34
2023-06-04T17:20:34.389Z,97760.44
2023-06-04T17:23:01.858Z,97762.44
2023-06-04T17:25:30.227Z,97770.78
2023-06-04T17:27:57.580Z,97774.19
2023-06-04T17:30:25.425Z,97778.31
2023-06-04T17:32:52.111Z,97774.00
2023-06-04T17:35:19.002Z,97771.66
2023-06-04T17:37:45.933Z,97779.97
2023-06-04T17:40:13.091Z,97782.78
2023-06-04T17:42:41.845Z,97776.50
2023-06-04T17:45:11.303Z,97772.16
2023-06-04T17:47:38.046Z,97769.13
2023-06-04T17:50:08.038Z,97770.59
2023-06-04T17:52:35.645Z,97774.91
2023-06-04T17:55:02.565Z,97780.78
2023-06-04T17:57:30.421Z,97775.72
2023-06-04T18:00:20.564Z,97775.28
2023-06-04T18:02:49.081Z,97781.03
2023-06-04T18:05:15.863Z,97787.03
2023-06-04T18:07:42.540Z,97781.88
2023-06-04T18:10:12.875Z,97795.06
2023-06-04T18:12:39.504Z,97794.19
2023-06-04T18:15:06.594Z,97801.84
2023-06-04T18:18:06.201Z,97802.03
2023-06-04T18:20:38.078Z,97816.19
2023-06-04T18:23:08.482Z,97814.00
2023-06-04T18:25:37.028Z,97814.09
2023-06-04T18:28:15.967Z,97821.03
2023-06-04T18:30:42.812Z,97824.09
2023-06-04T18:33:15.313Z,97827.84
2023-06-04T18:36:05.345Z,97825.66
2023-06-04T18:38:41.319Z,97836.56
2023-06-04T18:41:07.992Z,97839.72
2023-06-04T18:43:34.686Z,97839.59
2023-06-04T18:46:01.381Z,97848.72
2023-06-04T18:48:28.014Z,97840.19
2023-06-04T18:50:56.962Z,97849.34
2023-06-04T18:53:23.831Z,97842.25
2023-06-04T18:55:55.412Z,97852.41
2023-06-04T18:58:22.212Z,97858.38
2023-06-04T19:00:48.962Z,97856.25
2023-06-04T19:03:18.829Z,97854.94
2023-06-04T19:05:51.604Z,97857.25
2023-06-04T19:08:22.710Z,97864.22
2023-06-04T19:10:59.966Z,97857.44
2023-06-04T19:13:29.789Z,97866.03
2023-06-04T19:15:56.455Z,97865.91
2023-06-04T19:18:23.208Z,97864.22
2023-06-04T19:20:58.231Z,97876.19
2023-06-04T19:23:25.021Z,97868.78
2023-06-04T19:25:51.604Z,97868.41
2023-06-04T19:28:18.733Z,97878.91
2023-06-04T19:30:45.899Z,97879.03
2023-06-04T19:33:12.746Z,97875.72
2023-06-04T19:35:39.558Z,97874.97
2023-06-04T19:38:07.013Z,97873.00
2023-06-04T19:40:33.645Z,97872.56
2023-06-04T19:43:00.368Z,97874.16
2023-06-04T19:45:28.151Z,97876.59
2023-06-04T19:47:54.916Z,97873.28
2023-06-04T19:50:21.679Z,97879.38
2023-06-04T19:52:48.498Z,97877.78
2023-06-04T19:55:15.083Z,97872.56
2023-06-04T19:57:42.121Z,97872.22
2023-06-04T20:00:09.561Z,97883.25
2023-06-04T20:02:36.938Z,97875.13
2023-06-04T20:05:04.148Z,97877.81
2023-06-04T20:07:31.898Z,97893.31
2023-06-04T20:09:58.703Z,97885.47
2023-06-04T20:12:25.395Z,97890.75
2023-06-04T20:14:52.167Z,97888.50
2023-06-04T20:17:18.929Z,97894.34
2023-06-04T20:19:45.898Z,97893.00
2023-06-04T20:22:12.593Z,97893.00
2023-06-04T20:24:40.150Z,97886.38
2023-06-04T20:27:07.004Z,97885.59
2023-06-04T20:29:33.855Z,97889.84
2023-06-04T20:32:00.588Z,97902.13
2023-06-04T20:34:27.857Z,97897.34
2023-06-04T20:36:57.378Z,97892.00
2023-06-04T20:39:24.266Z,97903.13
2023-06-04T20:41:51.024Z,97898.94
2023-06-04T20:44:18.660Z,97897.22
2023-06-04T20:46:45.542Z,97904.66
2023-06-04T20:49:12.929Z,97899.00
2023-06-04T20:51:39.552Z,97903.63
2023-06-04T20:54:06.183Z,97896.88
2023-06-04T20:56:32.979Z,97899.56
2023-06-04T20:58:59.665Z,97896.56
2023-06-04T21:01:26.847Z,97891.66
2023-06-04T21:03:53.756Z,97893.38
2023-06-04T21:06:20.969Z,97885.47
2023-06-04T21:08:47.647Z,97892.34
2023-06-04T21:11:14.375Z,97893.19
2023-06-04T21:13:41.007Z,97898.53
2023-06-04T21:16:07.764Z,97899.00
2023-06-04T21:18:34.433Z,97894.91
2023-06-04T21:21:01.254Z,97902.53
2023-06-04T21:23:27.868Z,97902.34
2023-06-04T21:25:54.566Z,97905.59
2023-06-04T21:28:21.248Z,97906.91
2023-06-04T21:30:47.945Z,97900.63
2023-06-04T21:33:14.567Z,97909.53
2023-06-04T21:35:41.293Z,97906.22
2023-06-04T21:38:07.880Z,97907.72
2023-06-04T21:40:34.514Z,97907.19
2023-06-04T21:43:01.247Z,97911.59
2023-06-04T21:45:28.321Z,97909.50
2023-06-04T21:47:55.543Z,97908.47
2023-06-04T21:50:23.420Z,97905.81
2023-06-04T21:52:50.099Z,97910.47
2023-06-04T21:55:16.879Z,97901.69
2023-06-04T21:57:43.616Z,97910.00
2023-06-04T22:00:12.728Z,97909.84
2023-06-04T22:02:40.036Z,97914.25
2023-06-04T22:05:07.100Z,97909.72
2023-06-04T22:07:33.935Z,97914.00
2023-06-04T22:10:00.838Z,97904.56
2023-06-04T22:12:28.575Z,97918.72
2023-06-04T22:14:55.369Z,97908.47
2023-06-04T22:17:22.057Z,97906.38
2023-06-04T22:19:48.759Z,97906.25
2023-06-04T22:22:15.494Z,97906.72
2023-06-04T22:24:42.279Z,97910.41
2023-06-04T22:27:08.977Z,97913.16
2023-06-04T22:29:35.883Z,97902.97
2023-06-04T22:32:02.559Z,97900.59
2023-06-04T22:34:29.181Z,97900.59
2023-06-04T22:36:55.906Z,97904.00
2023-06-04T22:39:22.522Z,97909.47
2023-06-04T22:41:49.178Z,97915.94
2023-06-04T22:44:16.018Z,97914.13
2023-06-04T22:46:42.793Z,97915.28
2023-06-04T22:49:09.437Z,97914.09
2023-06-04T22:51:36.325Z,97909.22
2023-06-04T22:54:03.028Z,97917.47
2023-06-04T22:56:29.759Z,97913.44
2023-06-04T22:58:56.463Z,97911.28
2023-06-04T23:01:23.228Z,97910.81
2023-06-04T23:03:49.995Z,97903.81
2023-06-04T23:06:16.881Z,97905.44
2023-06-04T23:08:43.600Z,97900.56
2023-06-04T23:11:10.543Z,97893.22
2023-06-04T23:13:37.282Z,97899.56
2023-06-04T23:16:03.986Z,97894.16
2023-06-04T23:18:30.987Z,97892.63
2023-06-04T23:20:57.716Z,97899.53
2023-06-04T23:23:24.481Z,97904.84
2023-06-04T23:25:51.354Z,97901.81
2023-06-04T23:28:18.092Z,97898.75
2023-06-04T23:30:44.836Z,97891.91
2023-06-04T23:33:11.501Z,97897.44
2023-06-04T23:35:38.225Z,97899.50
2023-06-04T23:38:04.915Z,97906.41
2023-06-04T23:40:31.634Z,97893.84
2023-06-04T23:42:58.279Z,97898.59
2023-06-04T23:45:24.984Z,97909.06
2023-06-04T23:47:51.688Z,97903.31
2023-06-04T23:50:18.416Z,97897.81
2023-06-04T23:52:45.099Z,97902.88
2023-06-04T23:55:11.740Z,97905.84
2023-06-04T23:57:38.394Z,97906.22
